sensor_id;sensor_type;location;lat;lon;timestamp;P1;durP1;ratioP1;P2;durP2;ratioP2
78205;SDS011;67480;48.920;12.880;2023-08-31T00:00:44;5.60;;;5.10;;
78205;SDS011;67480;48.920;12.880;2023-08-31T00:03:09;5.65;;;5.18;;
78205;SDS011;67480;48.920;12.880;2023-08-31T00:05:40;5.20;;;4.78;;
78205;SDS011;67480;48.920;12.880;2023-08-31T00:08:06;5.45;;;4.88;;
78205;SDS011;67480;48.920;12.880;2023-08-31T00:10:33;6.38;;;5.60;;
78205;SDS011;67480;48.920;12.880;2023-08-31T00:13:00;5.68;;;5.18;;
78205;SDS011;67480;48.920;12.880;2023-08-31T00:15:30;5.70;;;4.90;;
78205;SDS011;67480;48.920;12.880;2023-08-31T00:17:58;5.65;;;5.00;;
78205;SDS011;67480;48.920;12.880;2023-08-31T00:20:23;6.72;;;4.80;;
78205;SDS011;67480;48.920;12.880;2023-08-31T00:22:49;5.38;;;4.88;;
78205;SDS011;67480;48.920;12.880;2023-08-31T00:25:14;4.80;;;4.40;;
78205;SDS011;67480;48.920;12.880;2023-08-31T00:27:40;5.32;;;4.47;;
78205;SDS011;67480;48.920;12.880;2023-08-31T00:30:06;5.40;;;4.65;;
78205;SDS011;67480;48.920;12.880;2023-08-31T00:32:36;6.30;;;5.28;;
78205;SDS011;67480;48.920;12.880;2023-08-31T00:35:01;5.60;;;5.00;;
78205;SDS011;67480;48.920;12.880;2023-08-31T00:37:28;5.70;;;4.70;;
78205;SDS011;67480;48.920;12.880;2023-08-31T00:39:54;5.30;;;4.90;;
78205;SDS011;67480;48.920;12.880;2023-08-31T00:42:19;6.25;;;5.65;;
78205;SDS011;67480;48.920;12.880;2023-08-31T00:44:45;5.22;;;4.82;;
78205;SDS011;67480;48.920;12.880;2023-08-31T00:47:12;5.60;;;5.10;;
78205;SDS011;67480;48.920;12.880;2023-08-31T00:49:38;5.68;;;4.93;;
78205;SDS011;67480;48.920;12.880;2023-08-31T00:52:05;5.28;;;4.88;;
78205;SDS011;67480;48.920;12.880;2023-08-31T00:54:31;5.80;;;4.82;;
78205;SDS011;67480;48.920;12.880;2023-08-31T00:56:57;5.10;;;4.65;;
78205;SDS011;67480;48.920;12.880;2023-08-31T00:59:22;5.30;;;4.80;;
78205;SDS011;67480;48.920;12.880;2023-08-31T01:12:39;7.85;;;4.75;;
78205;SDS011;67480;48.920;12.880;2023-08-31T01:15:12;6.40;;;5.55;;
78205;SDS011;67480;48.920;12.880;2023-08-31T01:17:40;5.80;;;5.18;;
78205;SDS011;67480;48.920;12.880;2023-08-31T01:20:11;5.40;;;4.97;;
78205;SDS011;67480;48.920;12.880;2023-08-31T01:22:52;5.95;;;5.03;;
78205;SDS011;67480;48.920;12.880;2023-08-31T01:25:22;5.18;;;4.78;;
78205;SDS011;67480;48.920;12.880;2023-08-31T01:27:49;7.30;;;5.15;;
78205;SDS011;67480;48.920;12.880;2023-08-31T01:30:16;5.63;;;5.13;;
78205;SDS011;67480;48.920;12.880;2023-08-31T01:32:45;6.57;;;5.20;;
78205;SDS011;67480;48.920;12.880;2023-08-31T01:35:10;5.95;;;5.35;;
78205;SDS011;67480;48.920;12.880;2023-08-31T01:40:21;5.10;;;4.70;;
78205;SDS011;67480;48.920;12.880;2023-08-31T01:42:52;5.65;;;4.90;;
78205;SDS011;67480;48.920;12.880;2023-08-31T01:45:20;5.82;;;5.20;;
78205;SDS011;67480;48.920;12.880;2023-08-31T01:47:47;5.45;;;4.95;;
78205;SDS011;67480;48.920;12.880;2023-08-31T01:50:13;5.28;;;4.88;;
78205;SDS011;67480;48.920;12.880;2023-08-31T01:52:39;5.45;;;4.95;;
78205;SDS011;67480;48.920;12.880;2023-08-31T01:55:05;5.93;;;5.07;;
78205;SDS011;67480;48.920;12.880;2023-08-31T01:57:31;5.50;;;5.00;;
78205;SDS011;67480;48.920;12.880;2023-08-31T01:59:57;5.40;;;4.90;;
78205;SDS011;67480;48.920;12.880;2023-08-31T02:02:22;5.70;;;5.20;;
78205;SDS011;67480;48.920;12.880;2023-08-31T02:04:48;5.50;;;5.00;;
78205;SDS011;67480;48.920;12.880;2023-08-31T02:07:13;5.25;;;4.75;;
78205;SDS011;67480;48.920;12.880;2023-08-31T02:09:39;5.10;;;4.70;;
78205;SDS011;67480;48.920;12.880;2023-08-31T02:12:04;5.43;;;4.97;;
78205;SDS011;67480;48.920;12.880;2023-08-31T02:14:30;6.00;;;5.40;;
78205;SDS011;67480;48.920;12.880;2023-08-31T02:16:55;5.47;;;5.00;;
78205;SDS011;67480;48.920;12.880;2023-08-31T02:19:20;6.65;;;5.10;;
78205;SDS011;67480;48.920;12.880;2023-08-31T02:21:46;7.30;;;5.20;;
78205;SDS011;67480;48.920;12.880;2023-08-31T02:24:11;5.97;;;5.13;;
78205;SDS011;67480;48.920;12.880;2023-08-31T02:26:37;8.45;;;5.20;;
78205;SDS011;67480;48.920;12.880;2023-08-31T02:29:02;6.25;;;5.03;;
78205;SDS011;67480;48.920;12.880;2023-08-31T02:31:28;8.05;;;5.65;;
78205;SDS011;67480;48.920;12.880;2023-08-31T02:33:53;9.88;;;5.70;;
78205;SDS011;67480;48.920;12.880;2023-08-31T02:36:19;5.80;;;4.95;;
78205;SDS011;67480;48.920;12.880;2023-08-31T02:38:45;5.70;;;5.10;;
78205;SDS011;67480;48.920;12.880;2023-08-31T02:41:11;5.70;;;5.20;;
78205;SDS011;67480;48.920;12.880;2023-08-31T02:43:37;5.57;;;5.15;;
78205;SDS011;67480;48.920;12.880;2023-08-31T02:46:02;5.82;;;5.22;;
78205;SDS011;67480;48.920;12.880;2023-08-31T02:48:29;6.30;;;5.13;;
78205;SDS011;67480;48.920;12.880;2023-08-31T02:50:58;6.40;;;4.57;;
78205;SDS011;67480;48.920;12.880;2023-08-31T02:53:26;9.15;;;5.15;;
78205;SDS011;67480;48.920;12.880;2023-08-31T02:55:52;7.80;;;5.47;;
78205;SDS011;67480;48.920;12.880;2023-08-31T02:58:17;6.30;;;5.78;;
78205;SDS011;67480;48.920;12.880;2023-08-31T03:00:44;5.63;;;5.13;;
78205;SDS011;67480;48.920;12.880;2023-08-31T03:03:13;7.60;;;6.25;;
78205;SDS011;67480;48.920;12.880;2023-08-31T03:05:41;6.35;;;5.80;;
78205;SDS011;67480;48.920;12.880;2023-08-31T03:08:07;6.32;;;5.38;;
78205;SDS011;67480;48.920;12.880;2023-08-31T03:10:33;8.65;;;6.00;;
78205;SDS011;67480;48.920;12.880;2023-08-31T03:12:58;6.30;;;5.80;;
78205;SDS011;67480;48.920;12.880;2023-08-31T03:15:23;6.63;;;5.10;;
78205;SDS011;67480;48.920;12.880;2023-08-31T03:17:49;6.80;;;6.15;;
78205;SDS011;67480;48.920;12.880;2023-08-31T03:20:14;7.53;;;6.82;;
78205;SDS011;67480;48.920;12.880;2023-08-31T03:22:40;7.40;;;6.68;;
78205;SDS011;67480;48.920;12.880;2023-08-31T03:25:06;6.45;;;5.85;;
78205;SDS011;67480;48.920;12.880;2023-08-31T03:27:31;8.10;;;6.95;;
78205;SDS011;67480;48.920;12.880;2023-08-31T03:29:57;8.00;;;7.30;;
78205;SDS011;67480;48.920;12.880;2023-08-31T03:32:22;9.18;;;8.27;;
78205;SDS011;67480;48.920;12.880;2023-08-31T03:34:48;9.30;;;8.40;;
78205;SDS011;67480;48.920;12.880;2023-08-31T03:37:13;9.73;;;8.43;;
78205;SDS011;67480;48.920;12.880;2023-08-31T03:39:39;9.60;;;8.70;;
78205;SDS011;67480;48.920;12.880;2023-08-31T03:42:06;8.98;;;7.88;;
78205;SDS011;67480;48.920;12.880;2023-08-31T03:44:31;11.48;;;8.40;;
78205;SDS011;67480;48.920;12.880;2023-08-31T03:46:57;9.23;;;8.38;;
78205;SDS011;67480;48.920;12.880;2023-08-31T03:49:22;9.73;;;8.82;;
78205;SDS011;67480;48.920;12.880;2023-08-31T03:51:48;9.13;;;8.05;;
78205;SDS011;67480;48.920;12.880;2023-08-31T03:54:13;9.82;;;8.25;;
78205;SDS011;67480;48.920;12.880;2023-08-31T03:56:39;10.00;;;9.05;;
78205;SDS011;67480;48.920;12.880;2023-08-31T03:59:05;9.95;;;8.90;;
78205;SDS011;67480;48.920;12.880;2023-08-31T04:01:31;10.30;;;9.30;;
78205;SDS011;67480;48.920;12.880;2023-08-31T04:03:56;9.82;;;8.82;;
78205;SDS011;67480;48.920;12.880;2023-08-31T04:06:22;10.00;;;9.00;;
78205;SDS011;67480;48.920;12.880;2023-08-31T04:08:47;10.30;;;9.30;;
78205;SDS011;67480;48.920;12.880;2023-08-31T04:11:12;11.68;;;9.40;;
78205;SDS011;67480;48.920;12.880;2023-08-31T04:13:38;10.35;;;8.82;;
78205;SDS011;67480;48.920;12.880;2023-08-31T04:16:04;10.60;;;9.43;;
78205;SDS011;67480;48.920;12.880;2023-08-31T04:18:30;9.95;;;8.82;;
78205;SDS011;67480;48.920;12.880;2023-08-31T04:20:55;9.98;;;8.93;;
78205;SDS011;67480;48.920;12.880;2023-08-31T04:23:24;9.98;;;8.98;;
78205;SDS011;67480;48.920;12.880;2023-08-31T04:25:49;10.23;;;9.23;;
78205;SDS011;67480;48.920;12.880;2023-08-31T04:28:18;12.00;;;9.60;;
78205;SDS011;67480;48.920;12.880;2023-08-31T04:30:43;10.35;;;9.30;;
78205;SDS011;67480;48.920;12.880;2023-08-31T04:33:09;11.88;;;9.85;;
78205;SDS011;67480;48.920;12.880;2023-08-31T04:35:35;9.88;;;8.88;;
78205;SDS011;67480;48.920;12.880;2023-08-31T04:38:00;10.35;;;9.35;;
78205;SDS011;67480;48.920;12.880;2023-08-31T04:40:27;9.63;;;8.73;;
78205;SDS011;67480;48.920;12.880;2023-08-31T04:42:52;10.15;;;9.15;;
78205;SDS011;67480;48.920;12.880;2023-08-31T04:45:18;10.55;;;9.10;;
78205;SDS011;67480;48.920;12.880;2023-08-31T04:47:44;10.77;;;9.77;;
78205;SDS011;67480;48.920;12.880;2023-08-31T04:50:09;9.88;;;8.48;;
78205;SDS011;67480;48.920;12.880;2023-08-31T04:52:34;10.32;;;9.00;;
78205;SDS011;67480;48.920;12.880;2023-08-31T04:55:05;9.25;;;8.35;;
78205;SDS011;67480;48.920;12.880;2023-08-31T04:57:36;9.07;;;8.10;;
78205;SDS011;67480;48.920;12.880;2023-08-31T05:00:02;9.52;;;8.63;;
78205;SDS011;67480;48.920;12.880;2023-08-31T05:02:28;9.05;;;8.15;;
78205;SDS011;67480;48.920;12.880;2023-08-31T05:04:54;9.38;;;8.57;;
78205;SDS011;67480;48.920;12.880;2023-08-31T05:07:19;9.57;;;8.57;;
78205;SDS011;67480;48.920;12.880;2023-08-31T05:09:44;17.38;;;8.82;;
78205;SDS011;67480;48.920;12.880;2023-08-31T05:12:10;9.07;;;8.27;;
78205;SDS011;67480;48.920;12.880;2023-08-31T05:14:35;9.35;;;8.45;;
78205;SDS011;67480;48.920;12.880;2023-08-31T05:17:05;10.23;;;9.23;;
78205;SDS011;67480;48.920;12.880;2023-08-31T05:19:31;9.88;;;8.73;;
78205;SDS011;67480;48.920;12.880;2023-08-31T05:21:56;14.07;;;9.07;;
78205;SDS011;67480;48.920;12.880;2023-08-31T05:24:22;10.77;;;8.48;;
78205;SDS011;67480;48.920;12.880;2023-08-31T05:26:48;10.07;;;8.93;;
78205;SDS011;67480;48.920;12.880;2023-08-31T05:29:14;9.52;;;8.63;;
78205;SDS011;67480;48.920;12.880;2023-08-31T05:31:39;9.48;;;8.57;;
78205;SDS011;67480;48.920;12.880;2023-08-31T05:34:04;8.88;;;8.07;;
78205;SDS011;67480;48.920;12.880;2023-08-31T05:36:30;8.82;;;7.72;;
78205;SDS011;67480;48.920;12.880;2023-08-31T05:38:55;9.23;;;8.13;;
78205;SDS011;67480;48.920;12.880;2023-08-31T05:41:21;9.40;;;7.95;;
78205;SDS011;67480;48.920;12.880;2023-08-31T05:43:46;9.13;;;8.20;;
78205;SDS011;67480;48.920;12.880;2023-08-31T05:46:12;8.73;;;7.93;;
78205;SDS011;67480;48.920;12.880;2023-08-31T05:48:37;8.93;;;8.05;;
78205;SDS011;67480;48.920;12.880;2023-08-31T05:51:03;9.10;;;8.20;;
78205;SDS011;67480;48.920;12.880;2023-08-31T05:53:32;8.60;;;7.80;;
78205;SDS011;67480;48.920;12.880;2023-08-31T05:55:57;8.93;;;8.07;;
78205;SDS011;67480;48.920;12.880;2023-08-31T05:58:30;8.90;;;8.10;;
78205;SDS011;67480;48.920;12.880;2023-08-31T06:00:56;9.25;;;8.35;;
78205;SDS011;67480;48.920;12.880;2023-08-31T06:03:22;8.77;;;7.80;;
78205;SDS011;67480;48.920;12.880;2023-08-31T06:05:47;9.88;;;8.88;;
78205;SDS011;67480;48.920;12.880;2023-08-31T06:08:13;9.10;;;8.02;;
78205;SDS011;67480;48.920;12.880;2023-08-31T06:10:38;8.82;;;8.02;;
78205;SDS011;67480;48.920;12.880;2023-08-31T06:13:04;9.55;;;8.07;;
78205;SDS011;67480;48.920;12.880;2023-08-31T06:15:29;8.85;;;7.93;;
78205;SDS011;67480;48.920;12.880;2023-08-31T06:17:54;9.40;;;8.50;;
78205;SDS011;67480;48.920;12.880;2023-08-31T06:20:20;8.02;;;7.22;;
78205;SDS011;67480;48.920;12.880;2023-08-31T06:22:45;8.13;;;7.40;;
78205;SDS011;67480;48.920;12.880;2023-08-31T06:25:11;8.45;;;7.65;;
78205;SDS011;67480;48.920;12.880;2023-08-31T06:27:36;7.50;;;6.80;;
78205;SDS011;67480;48.920;12.880;2023-08-31T06:30:02;7.40;;;6.70;;
78205;SDS011;67480;48.920;12.880;2023-08-31T06:32:28;7.18;;;6.57;;
78205;SDS011;67480;48.920;12.880;2023-08-31T06:34:53;7.60;;;7.00;;
78205;SDS011;67480;48.920;12.880;2023-08-31T06:37:19;7.68;;;6.97;;
78205;SDS011;67480;48.920;12.880;2023-08-31T06:39:45;7.22;;;6.63;;
78205;SDS011;67480;48.920;12.880;2023-08-31T06:42:10;6.45;;;5.85;;
78205;SDS011;67480;48.920;12.880;2023-08-31T06:44:39;7.47;;;6.75;;
78205;SDS011;67480;48.920;12.880;2023-08-31T06:47:04;6.78;;;6.18;;
78205;SDS011;67480;48.920;12.880;2023-08-31T06:49:29;7.15;;;6.55;;
78205;SDS011;67480;48.920;12.880;2023-08-31T06:51:57;7.45;;;6.85;;
78205;SDS011;67480;48.920;12.880;2023-08-31T06:54:23;7.70;;;6.63;;
78205;SDS011;67480;48.920;12.880;2023-08-31T06:56:48;9.18;;;6.70;;
78205;SDS011;67480;48.920;12.880;2023-08-31T06:59:14;6.63;;;6.10;;
78205;SDS011;67480;48.920;12.880;2023-08-31T07:01:39;7.30;;;6.50;;
78205;SDS011;67480;48.920;12.880;2023-08-31T07:04:04;7.07;;;6.18;;
78205;SDS011;67480;48.920;12.880;2023-08-31T07:06:31;6.13;;;5.55;;
78205;SDS011;67480;48.920;12.880;2023-08-31T07:08:58;7.22;;;6.53;;
78205;SDS011;67480;48.920;12.880;2023-08-31T07:11:24;6.78;;;6.07;;
78205;SDS011;67480;48.920;12.880;2023-08-31T07:13:50;6.35;;;5.75;;
78205;SDS011;67480;48.920;12.880;2023-08-31T07:16:15;6.45;;;5.70;;
78205;SDS011;67480;48.920;12.880;2023-08-31T07:18:41;5.75;;;5.25;;
78205;SDS011;67480;48.920;12.880;2023-08-31T07:21:06;5.70;;;5.18;;
78205;SDS011;67480;48.920;12.880;2023-08-31T07:23:31;5.47;;;4.97;;
78205;SDS011;67480;48.920;12.880;2023-08-31T07:25:57;6.95;;;5.07;;
78205;SDS011;67480;48.920;12.880;2023-08-31T07:28:26;5.85;;;4.78;;
78205;SDS011;67480;48.920;12.880;2023-08-31T07:31:04;5.25;;;4.85;;
78205;SDS011;67480;48.920;12.880;2023-08-31T07:33:31;5.43;;;4.93;;
78205;SDS011;67480;48.920;12.880;2023-08-31T07:35:57;5.32;;;4.93;;
78205;SDS011;67480;48.920;12.880;2023-08-31T07:38:24;5.82;;;4.50;;
78205;SDS011;67480;48.920;12.880;2023-08-31T07:40:50;7.30;;;5.32;;
78205;SDS011;67480;48.920;12.880;2023-08-31T07:43:15;6.22;;;4.80;;
78205;SDS011;67480;48.920;12.880;2023-08-31T07:45:40;5.65;;;4.55;;
78205;SDS011;67480;48.920;12.880;2023-08-31T07:48:09;5.40;;;4.85;;
78205;SDS011;67480;48.920;12.880;2023-08-31T07:50:34;4.45;;;4.03;;
78205;SDS011;67480;48.920;12.880;2023-08-31T07:53:00;5.00;;;4.60;;
78205;SDS011;67480;48.920;12.880;2023-08-31T07:55:25;4.45;;;4.10;;
78205;SDS011;67480;48.920;12.880;2023-08-31T07:57:51;7.32;;;4.90;;
78205;SDS011;67480;48.920;12.880;2023-08-31T08:00:16;7.38;;;4.72;;
78205;SDS011;67480;48.920;12.880;2023-08-31T08:02:43;5.65;;;4.40;;
78205;SDS011;67480;48.920;12.880;2023-08-31T08:05:09;5.07;;;4.57;;
78205;SDS011;67480;48.920;12.880;2023-08-31T08:07:35;7.50;;;4.75;;
78205;SDS011;67480;48.920;12.880;2023-08-31T08:10:00;5.03;;;4.00;;
78205;SDS011;67480;48.920;12.880;2023-08-31T08:12:25;5.28;;;4.55;;
78205;SDS011;67480;48.920;12.880;2023-08-31T08:14:51;5.85;;;5.03;;
78205;SDS011;67480;48.920;12.880;2023-08-31T08:17:16;5.25;;;4.75;;
78205;SDS011;67480;48.920;12.880;2023-08-31T08:19:42;7.68;;;4.82;;
78205;SDS011;67480;48.920;12.880;2023-08-31T08:22:07;5.85;;;4.50;;
78205;SDS011;67480;48.920;12.880;2023-08-31T08:24:32;6.82;;;4.60;;
78205;SDS011;67480;48.920;12.880;2023-08-31T08:26:58;7.00;;;4.65;;
78205;SDS011;67480;48.920;12.880;2023-08-31T08:29:24;6.15;;;4.53;;
78205;SDS011;67480;48.920;12.880;2023-08-31T08:31:49;9.45;;;4.88;;
78205;SDS011;67480;48.920;12.880;2023-08-31T08:34:15;5.78;;;3.85;;
78205;SDS011;67480;48.920;12.880;2023-08-31T08:36:40;8.35;;;4.95;;
78205;SDS011;67480;48.920;12.880;2023-08-31T08:39:06;4.82;;;4.07;;
78205;SDS011;67480;48.920;12.880;2023-08-31T08:41:32;4.80;;;3.80;;
78205;SDS011;67480;48.920;12.880;2023-08-31T08:44:03;6.00;;;3.92;;
78205;SDS011;67480;48.920;12.880;2023-08-31T08:46:30;4.63;;;3.70;;
78205;SDS011;67480;48.920;12.880;2023-08-31T08:48:57;7.88;;;4.13;;
78205;SDS011;67480;48.920;12.880;2023-08-31T08:51:24;4.45;;;3.78;;
78205;SDS011;67480;48.920;12.880;2023-08-31T08:53:50;6.65;;;4.10;;
78205;SDS011;67480;48.920;12.880;2023-08-31T08:56:16;5.22;;;3.75;;
78205;SDS011;67480;48.920;12.880;2023-08-31T08:58:42;4.25;;;3.10;;
78205;SDS011;67480;48.920;12.880;2023-08-31T09:01:07;6.90;;;4.20;;
78205;SDS011;67480;48.920;12.880;2023-08-31T09:03:34;7.25;;;3.92;;
78205;SDS011;67480;48.920;12.880;2023-08-31T09:06:00;6.38;;;3.83;;
78205;SDS011;67480;48.920;12.880;2023-08-31T09:08:33;7.82;;;4.00;;
78205;SDS011;67480;48.920;12.880;2023-08-31T09:10:58;4.75;;;3.80;;
78205;SDS011;67480;48.920;12.880;2023-08-31T09:13:27;5.93;;;3.63;;
78205;SDS011;67480;48.920;12.880;2023-08-31T09:15:54;4.78;;;3.60;;
78205;SDS011;67480;48.920;12.880;2023-08-31T09:18:24;4.78;;;3.60;;
78205;SDS011;67480;48.920;12.880;2023-08-31T09:20:50;6.20;;;3.80;;
78205;SDS011;67480;48.920;12.880;2023-08-31T09:23:16;3.90;;;3.58;;
78205;SDS011;67480;48.920;12.880;2023-08-31T09:25:47;7.63;;;3.92;;
78205;SDS011;67480;48.920;12.880;2023-08-31T09:28:15;4.32;;;3.65;;
78205;SDS011;67480;48.920;12.880;2023-08-31T09:30:48;3.83;;;3.30;;
78205;SDS011;67480;48.920;12.880;2023-08-31T09:33:16;7.32;;;3.60;;
78205;SDS011;67480;48.920;12.880;2023-08-31T09:35:53;5.50;;;3.13;;
78205;SDS011;67480;48.920;12.880;2023-08-31T09:38:21;6.50;;;3.22;;
78205;SDS011;67480;48.920;12.880;2023-08-31T09:40:47;4.45;;;3.40;;
78205;SDS011;67480;48.920;12.880;2023-08-31T09:43:18;4.88;;;3.25;;
78205;SDS011;67480;48.920;12.880;2023-08-31T09:45:45;7.03;;;3.47;;
78205;SDS011;67480;48.920;12.880;2023-08-31T09:48:11;4.13;;;3.47;;
78205;SDS011;67480;48.920;12.880;2023-08-31T09:50:37;7.93;;;3.35;;
78205;SDS011;67480;48.920;12.880;2023-08-31T09:53:04;7.20;;;3.30;;
78205;SDS011;67480;48.920;12.880;2023-08-31T09:55:30;4.53;;;3.72;;
78205;SDS011;67480;48.920;12.880;2023-08-31T09:57:58;3.42;;;2.83;;
78205;SDS011;67480;48.920;12.880;2023-08-31T10:00:29;6.93;;;3.92;;
78205;SDS011;67480;48.920;12.880;2023-08-31T10:02:56;5.15;;;4.07;;
78205;SDS011;67480;48.920;12.880;2023-08-31T10:05:25;7.05;;;4.28;;
78205;SDS011;67480;48.920;12.880;2023-08-31T10:07:50;5.85;;;4.32;;
78205;SDS011;67480;48.920;12.880;2023-08-31T10:10:16;5.45;;;3.75;;
78205;SDS011;67480;48.920;12.880;2023-08-31T10:12:44;5.05;;;3.78;;
78205;SDS011;67480;48.920;12.880;2023-08-31T10:15:11;4.78;;;4.20;;
78205;SDS011;67480;48.920;12.880;2023-08-31T10:17:40;5.97;;;4.45;;
78205;SDS011;67480;48.920;12.880;2023-08-31T10:20:08;8.15;;;4.32;;
78205;SDS011;67480;48.920;12.880;2023-08-31T10:22:36;5.32;;;4.78;;
78205;SDS011;67480;48.920;12.880;2023-08-31T10:25:06;7.53;;;4.22;;
78205;SDS011;67480;48.920;12.880;2023-08-31T10:27:39;6.28;;;4.40;;
78205;SDS011;67480;48.920;12.880;2023-08-31T10:38:17;4.47;;;3.35;;
78205;SDS011;67480;48.920;12.880;2023-08-31T10:41:00;6.63;;;4.47;;
78205;SDS011;67480;48.920;12.880;2023-08-31T10:46:18;4.03;;;3.05;;
78205;SDS011;67480;48.920;12.880;2023-08-31T10:48:56;6.20;;;3.67;;
78205;SDS011;67480;48.920;12.880;2023-08-31T10:51:24;4.18;;;3.60;;
78205;SDS011;67480;48.920;12.880;2023-08-31T10:53:50;3.45;;;3.13;;
78205;SDS011;67480;48.920;12.880;2023-08-31T10:56:17;3.13;;;2.75;;
78205;SDS011;67480;48.920;12.880;2023-08-31T10:58:42;5.40;;;3.08;;
78205;SDS011;67480;48.920;12.880;2023-08-31T11:01:46;4.07;;;3.13;;
78205;SDS011;67480;48.920;12.880;2023-08-31T11:04:17;7.03;;;2.80;;
78205;SDS011;67480;48.920;12.880;2023-08-31T11:06:42;4.40;;;3.10;;
78205;SDS011;67480;48.920;12.880;2023-08-31T11:09:17;6.72;;;2.65;;
78205;SDS011;67480;48.920;12.880;2023-08-31T11:11:44;3.70;;;2.60;;
78205;SDS011;67480;48.920;12.880;2023-08-31T11:14:10;4.15;;;2.58;;
78205;SDS011;67480;48.920;12.880;2023-08-31T11:16:37;6.07;;;2.80;;
78205;SDS011;67480;48.920;12.880;2023-08-31T11:19:03;6.18;;;2.97;;
78205;SDS011;67480;48.920;12.880;2023-08-31T11:21:29;3.42;;;2.30;;
78205;SDS011;67480;48.920;12.880;2023-08-31T11:23:56;5.68;;;2.65;;
78205;SDS011;67480;48.920;12.880;2023-08-31T11:26:24;3.45;;;2.60;;
78205;SDS011;67480;48.920;12.880;2023-08-31T11:28:51;2.83;;;2.20;;
78205;SDS011;67480;48.920;12.880;2023-08-31T11:31:26;4.57;;;2.60;;
78205;SDS011;67480;48.920;12.880;2023-08-31T11:33:51;4.15;;;2.38;;
78205;SDS011;67480;48.920;12.880;2023-08-31T11:36:18;6.10;;;2.90;;
78205;SDS011;67480;48.920;12.880;2023-08-31T11:38:44;8.23;;;2.50;;
78205;SDS011;67480;48.920;12.880;2023-08-31T11:41:09;6.93;;;2.83;;
78205;SDS011;67480;48.920;12.880;2023-08-31T11:43:35;3.95;;;3.00;;
78205;SDS011;67480;48.920;12.880;2023-08-31T11:46:01;3.78;;;2.60;;
78205;SDS011;67480;48.920;12.880;2023-08-31T11:48:28;5.57;;;2.50;;
78205;SDS011;67480;48.920;12.880;2023-08-31T11:50:54;5.32;;;2.75;;
78205;SDS011;67480;48.920;12.880;2023-08-31T11:53:20;3.92;;;2.30;;
78205;SDS011;67480;48.920;12.880;2023-08-31T11:55:51;3.92;;;2.20;;
78205;SDS011;67480;48.920;12.880;2023-08-31T11:58:18;4.72;;;2.45;;
78205;SDS011;67480;48.920;12.880;2023-08-31T12:01:07;3.97;;;2.63;;
78205;SDS011;67480;48.920;12.880;2023-08-31T12:03:41;3.80;;;2.20;;
78205;SDS011;67480;48.920;12.880;2023-08-31T12:06:09;4.68;;;2.72;;
78205;SDS011;67480;48.920;12.880;2023-08-31T12:08:34;4.43;;;2.35;;
78205;SDS011;67480;48.920;12.880;2023-08-31T12:11:02;3.92;;;2.33;;
78205;SDS011;67480;48.920;12.880;2023-08-31T12:13:27;2.85;;;2.40;;
78205;SDS011;67480;48.920;12.880;2023-08-31T12:15:57;3.15;;;2.10;;
78205;SDS011;67480;48.920;12.880;2023-08-31T12:18:22;3.65;;;2.30;;
78205;SDS011;67480;48.920;12.880;2023-08-31T12:20:51;2.92;;;2.20;;
78205;SDS011;67480;48.920;12.880;2023-08-31T12:23:17;3.50;;;2.38;;
78205;SDS011;67480;48.920;12.880;2023-08-31T12:25:49;2.88;;;2.38;;
78205;SDS011;67480;48.920;12.880;2023-08-31T12:28:19;3.88;;;2.33;;
78205;SDS011;67480;48.920;12.880;2023-08-31T12:30:53;5.63;;;2.55;;
78205;SDS011;67480;48.920;12.880;2023-08-31T12:33:20;5.53;;;2.50;;
78205;SDS011;67480;48.920;12.880;2023-08-31T12:35:46;4.55;;;2.53;;
78205;SDS011;67480;48.920;12.880;2023-08-31T12:38:12;5.63;;;2.28;;
78205;SDS011;67480;48.920;12.880;2023-08-31T12:40:37;4.53;;;2.30;;
78205;SDS011;67480;48.920;12.880;2023-08-31T12:43:04;4.03;;;2.30;;
78205;SDS011;67480;48.920;12.880;2023-08-31T12:45:29;3.40;;;2.55;;
78205;SDS011;67480;48.920;12.880;2023-08-31T12:47:55;4.72;;;2.20;;
78205;SDS011;67480;48.920;12.880;2023-08-31T12:50:20;3.72;;;2.40;;
78205;SDS011;67480;48.920;12.880;2023-08-31T12:52:46;3.97;;;2.20;;
78205;SDS011;67480;48.920;12.880;2023-08-31T12:55:12;3.60;;;2.60;;
78205;SDS011;67480;48.920;12.880;2023-08-31T12:57:38;4.00;;;2.90;;
78205;SDS011;67480;48.920;12.880;2023-08-31T13:00:04;3.83;;;2.40;;
78205;SDS011;67480;48.920;12.880;2023-08-31T13:02:30;4.40;;;2.33;;
78205;SDS011;67480;48.920;12.880;2023-08-31T13:04:56;3.08;;;2.22;;
78205;SDS011;67480;48.920;12.880;2023-08-31T13:07:21;4.90;;;2.95;;
78205;SDS011;67480;48.920;12.880;2023-08-31T13:09:46;6.18;;;2.25;;
78205;SDS011;67480;48.920;12.880;2023-08-31T13:12:12;3.90;;;2.28;;
78205;SDS011;67480;48.920;12.880;2023-08-31T13:14:37;4.07;;;2.55;;
78205;SDS011;67480;48.920;12.880;2023-08-31T13:17:04;3.20;;;2.47;;
78205;SDS011;67480;48.920;12.880;2023-08-31T13:19:30;2.72;;;2.40;;
78205;SDS011;67480;48.920;12.880;2023-08-31T13:21:55;4.15;;;2.05;;
78205;SDS011;67480;48.920;12.880;2023-08-31T13:24:20;5.10;;;2.80;;
78205;SDS011;67480;48.920;12.880;2023-08-31T13:26:46;4.70;;;2.58;;
78205;SDS011;67480;48.920;12.880;2023-08-31T13:29:13;4.53;;;2.60;;
78205;SDS011;67480;48.920;12.880;2023-08-31T13:31:39;3.88;;;2.42;;
78205;SDS011;67480;48.920;12.880;2023-08-31T13:34:04;4.15;;;2.65;;
78205;SDS011;67480;48.920;12.880;2023-08-31T13:36:32;5.32;;;2.47;;
78205;SDS011;67480;48.920;12.880;2023-08-31T13:38:58;4.43;;;2.45;;
78205;SDS011;67480;48.920;12.880;2023-08-31T13:41:24;3.65;;;2.25;;
78205;SDS011;67480;48.920;12.880;2023-08-31T13:43:49;5.07;;;2.22;;
78205;SDS011;67480;48.920;12.880;2023-08-31T13:46:14;3.53;;;2.10;;
78205;SDS011;67480;48.920;12.880;2023-08-31T13:48:40;3.28;;;2.03;;
78205;SDS011;67480;48.920;12.880;2023-08-31T13:51:05;3.05;;;2.35;;
78205;SDS011;67480;48.920;12.880;2023-08-31T13:53:30;3.08;;;2.20;;
78205;SDS011;67480;48.920;12.880;2023-08-31T13:55:56;3.22;;;2.30;;
78205;SDS011;67480;48.920;12.880;2023-08-31T13:58:22;2.65;;;2.28;;
78205;SDS011;67480;48.920;12.880;2023-08-31T14:00:47;2.75;;;2.28;;
78205;SDS011;67480;48.920;12.880;2023-08-31T14:03:14;3.92;;;2.55;;
78205;SDS011;67480;48.920;12.880;2023-08-31T14:05:39;3.70;;;2.53;;
78205;SDS011;67480;48.920;12.880;2023-08-31T14:08:05;6.53;;;2.35;;
78205;SDS011;67480;48.920;12.880;2023-08-31T14:10:31;4.05;;;2.35;;
78205;SDS011;67480;48.920;12.880;2023-08-31T14:12:58;3.55;;;2.40;;
78205;SDS011;67480;48.920;12.880;2023-08-31T14:15:23;3.10;;;2.00;;
78205;SDS011;67480;48.920;12.880;2023-08-31T14:17:52;2.35;;;2.10;;
78205;SDS011;67480;48.920;12.880;2023-08-31T14:20:18;3.92;;;2.90;;
78205;SDS011;67480;48.920;12.880;2023-08-31T14:22:44;3.30;;;2.22;;
78205;SDS011;67480;48.920;12.880;2023-08-31T14:25:10;2.90;;;2.47;;
78205;SDS011;67480;48.920;12.880;2023-08-31T14:27:37;4.65;;;2.88;;
78205;SDS011;67480;48.920;12.880;2023-08-31T14:30:02;3.83;;;2.60;;
78205;SDS011;67480;48.920;12.880;2023-08-31T14:32:29;3.97;;;2.17;;
78205;SDS011;67480;48.920;12.880;2023-08-31T14:34:55;3.47;;;2.67;;
78205;SDS011;67480;48.920;12.880;2023-08-31T14:37:20;2.25;;;2.05;;
78205;SDS011;67480;48.920;12.880;2023-08-31T14:39:46;6.03;;;2.40;;
78205;SDS011;67480;48.920;12.880;2023-08-31T14:42:11;3.42;;;2.35;;
78205;SDS011;67480;48.920;12.880;2023-08-31T14:44:37;5.43;;;2.20;;
78205;SDS011;67480;48.920;12.880;2023-08-31T14:47:02;2.88;;;2.33;;
78205;SDS011;67480;48.920;12.880;2023-08-31T14:49:38;3.22;;;2.50;;
78205;SDS011;67480;48.920;12.880;2023-08-31T14:52:05;4.00;;;2.90;;
78205;SDS011;67480;48.920;12.880;2023-08-31T14:54:31;2.55;;;2.03;;